Time;durP1;ratioP1;P1;durP2;ratioP2;P2;SDS_P1;SDS_P2;PMS_P1;PMS_P2;Temp;Humidity;BMP_temperature;BMP_pressure;BME280_temperature;BME280_humidity;BME280_pressure;Samples;Min_cycle;Max_cycle;Signal;HPM_P1;HPM_P2
2022/05/20 00:01:20;;;;;;;6.75;2.55;;;;;;;;;;4984790;28;20505;-67
2022/05/20 00:03:51;;;;;;;5.30;2.30;;;;;;;;;;4990631;28;20054;-67
2022/05/20 00:06:22;;;;;;;8.88;2.65;;;;;;;;;;4958666;28;20047;-67
2022/05/20 00:08:53;;;;;;;5.97;2.45;;;;;;;;;;4952002;29;20051;-66
2022/05/20 00:11:24;;;;;;;6.70;2.55;;;;;;;;;;4888381;29;20051;-66
2022/05/20 00:13:55;;;;;;;6.75;2.53;;;;;;;;;;4913773;29;20512;-67
2022/05/20 00:16:26;;;;;;;6.40;2.60;;;;;;;;;;4913851;29;20436;-66
2022/05/20 00:18:57;;;;;;;7.63;2.75;;;;;;;;;;4914028;29;20555;-67
2022/05/20 00:21:28;;;;;;;6.65;3.10;;;;;;;;;;4913800;29;20072;-67
2022/05/20 00:23:59;;;;;;;6.97;2.78;;;;;;;;;;4924635;29;20058;-66
2022/05/20 00:26:29;;;;;;;8.40;2.38;;;;;;;;;;4932929;29;20123;-67
2022/05/20 00:29:00;;;;;;;6.32;2.47;;;;;;;;;;4932657;29;20055;-66
2022/05/20 00:31:31;;;;;;;5.65;2.65;;;;;;;;;;4932806;29;20063;-67
2022/05/20 00:34:02;;;;;;;8.55;3.13;;;;;;;;;;4932623;29;20071;-67
2022/05/20 00:36:32;;;;;;;7.40;3.03;;;;;;;;;;4945572;28;20047;-67
2022/05/20 00:39:03;;;;;;;8.52;3.50;;;;;;;;;;4970869;28;20504;-67
2022/05/20 00:41:35;;;;;;;10.63;3.95;;;;;;;;;;4973887;28;20050;-67
2022/05/20 00:44:05;;;;;;;6.55;3.25;;;;;;;;;;4990478;28;20046;-66
2022/05/20 00:46:36;;;;;;;9.20;3.08;;;;;;;;;;4951297;28;20479;-67
2022/05/20 00:49:15;;;;;;;8.25;3.63;;;;;;;;;;4961823;28;20058;-67
2022/05/20 00:51:50;;;;;;;7.97;3.15;;;;;;;;;;4971182;28;20059;-67
2022/05/20 00:54:33;;;;;;;9.10;3.33;;;;;;;;;;4954753;28;20057;-67
2022/05/20 00:57:06;;;;;;;11.82;4.20;;;;;;;;;;4985784;28;20058;-67
2022/05/20 00:59:39;;;;;;;10.23;3.58;;;;;;;;;;4974199;28;20050;-67
2022/05/20 01:02:15;;;;;;;9.73;4.25;;;;;;;;;;4990229;28;20061;-67
2022/05/20 01:05:00;;;;;;;11.48;4.18;;;;;;;;;;4992020;28;20058;-66
2022/05/20 01:07:39;;;;;;;11.80;3.80;;;;;;;;;;4974749;28;20059;-66
2022/05/20 01:10:10;;;;;;;13.52;3.95;;;;;;;;;;4926942;28;20055;-66
2022/05/20 01:12:42;;;;;;;8.80;3.78;;;;;;;;;;4943207;28;20061;-66
2022/05/20 01:15:13;;;;;;;8.15;3.35;;;;;;;;;;4958384;28;20054;-67
2022/05/20 01:17:45;;;;;;;9.45;3.97;;;;;;;;;;4974464;28;20434;-67
2022/05/20 01:20:22;;;;;;;9.18;3.78;;;;;;;;;;4974410;28;20058;-66
2022/05/20 01:22:55;;;;;;;9.75;3.50;;;;;;;;;;4974590;28;20537;-67
2022/05/20 01:25:29;;;;;;;13.18;3.72;;;;;;;;;;5012804;28;20050;-67
2022/05/20 01:28:00;;;;;;;7.88;3.55;;;;;;;;;;4934400;28;20118;-66
2022/05/20 01:30:32;;;;;;;9.90;3.50;;;;;;;;;;5013310;28;20077;-67
2022/05/20 01:33:06;;;;;;;9.40;3.28;;;;;;;;;;4996775;28;20431;-66
2022/05/20 01:35:42;;;;;;;7.53;3.28;;;;;;;;;;4962893;28;20066;-67
2022/05/20 01:38:13;;;;;;;7.88;3.38;;;;;;;;;;4995122;28;20058;-67
2022/05/20 01:40:58;;;;;;;8.75;3.30;;;;;;;;;;4964967;28;20545;-66
2022/05/20 01:43:43;;;;;;;7.38;3.35;;;;;;;;;;5013164;28;20054;-67
2022/05/20 01:46:33;;;;;;;7.47;3.13;;;;;;;;;;5032434;28;20104;-67
2022/05/20 01:49:33;;;;;;;10.18;3.63;;;;;;;;;;5032809;28;20060;-67
2022/05/20 01:52:16;;;;;;;8.60;3.33;;;;;;;;;;4993238;28;20069;-66
2022/05/20 01:55:01;;;;;;;10.43;3.63;;;;;;;;;;4993359;28;20545;-66
2022/05/20 01:57:56;;;;;;;9.45;3.72;;;;;;;;;;4993374;28;20419;-66
2022/05/20 02:00:31;;;;;;;7.25;3.25;;;;;;;;;;4992934;28;20047;-66
2022/05/20 02:03:25;;;;;;;8.68;2.92;;;;;;;;;;5002662;28;20061;-66
2022/05/20 02:06:14;;;;;;;8.93;3.42;;;;;;;;;;4973330;28;20127;-67
2022/05/20 02:08:54;;;;;;;8.38;3.78;;;;;;;;;;4938184;28;20066;-67
2022/05/20 02:11:42;;;;;;;8.00;3.75;;;;;;;;;;4954378;28;20384;-67
2022/05/20 02:14:36;;;;;;;9.93;4.65;;;;;;;;;;4954212;28;20063;-67
2022/05/20 02:17:10;;;;;;;7.82;3.28;;;;;;;;;;4954117;28;20055;-67
2022/05/20 02:20:10;;;;;;;13.20;3.85;;;;;;;;;;4954176;28;20059;-67
2022/05/20 02:22:46;;;;;;;8.77;3.53;;;;;;;;;;4862565;29;20438;-67
2022/05/20 02:25:23;;;;;;;11.88;4.05;;;;;;;;;;4878285;29;20052;-67
2022/05/20 02:28:11;;;;;;;8.35;3.67;;;;;;;;;;4886390;29;20651;-67
2022/05/20 02:30:45;;;;;;;10.18;4.30;;;;;;;;;;4884597;29;20067;-67
2022/05/20 02:33:22;;;;;;;11.00;4.82;;;;;;;;;;4915903;29;20063;-67
2022/05/20 02:36:08;;;;;;;8.38;3.60;;;;;;;;;;4896641;29;20053;-67
2022/05/20 02:38:38;;;;;;;8.10;3.47;;;;;;;;;;4896779;29;20057;-67
2022/05/20 02:41:09;;;;;;;10.15;3.92;;;;;;;;;;4896492;29;20073;-67
2022/05/20 02:43:41;;;;;;;11.38;4.90;;;;;;;;;;4917217;29;20519;-67
2022/05/20 02:46:13;;;;;;;10.63;4.03;;;;;;;;;;4942926;29;20059;-67
2022/05/20 02:48:44;;;;;;;;;;;;;;;;;;4954201;29;20051;-67
2022/05/20 02:51:17;;;;;;;12.55;4.35;;;;;;;;;;4972446;28;19922;-67
2022/05/20 02:53:48;;;;;;;9.73;3.97;;;;;;;;;;4956256;28;20058;-66
2022/05/20 02:56:20;;;;;;;10.10;4.22;;;;;;;;;;4972849;28;20498;-67
2022/05/20 03:04:33;;;;;;;12.88;4.13;;;;;;;;;;5011516;28;20421;-66
2022/05/20 03:07:05;;;;;;;10.20;4.53;;;;;;;;;;5011757;28;20057;-66
2022/05/20 03:09:37;;;;;;;11.85;4.78;;;;;;;;;;5011414;28;20066;-67
2022/05/20 03:12:10;;;;;;;10.57;4.45;;;;;;;;;;5011342;28;20057;-67
2022/05/20 03:14:42;;;;;;;9.50;4.55;;;;;;;;;;5020939;28;20064;-66
2022/05/20 03:17:14;;;;;;;11.15;3.90;;;;;;;;;;5037871;28;20044;-67
2022/05/20 03:19:46;;;;;;;9.93;4.20;;;;;;;;;;5070680;28;20055;-67
2022/05/20 03:22:16;;;;;;;9.35;3.50;;;;;;;;;;4998071;28;20097;-67
2022/05/20 03:24:48;;;;;;;9.38;3.78;;;;;;;;;;4998075;28;20568;-67
2022/05/20 03:27:20;;;;;;;9.43;3.80;;;;;;;;;;4990954;28;20053;-67
2022/05/20 03:29:51;;;;;;;8.75;3.65;;;;;;;;;;4956980;28;20071;-67
2022/05/20 03:32:22;;;;;;;12.65;3.75;;;;;;;;;;4952755;29;20051;-67
2022/05/20 03:34:57;;;;;;;11.02;4.55;;;;;;;;;;4952534;29;20059;-67
2022/05/20 03:37:28;;;;;;;10.82;3.67;;;;;;;;;;4951509;29;20200;-67
2022/05/20 03:40:00;;;;;;;8.52;3.85;;;;;;;;;;4936908;29;20063;-67
2022/05/20 03:42:31;;;;;;;10.93;4.43;;;;;;;;;;4920776;29;20055;-67
2022/05/20 03:45:03;;;;;;;13.15;5.07;;;;;;;;;;4920765;29;20055;-67
2022/05/20 03:47:35;;;;;;;9.88;4.00;;;;;;;;;;4952623;29;20055;-67
2022/05/20 03:50:06;;;;;;;10.93;4.40;;;;;;;;;;4952356;29;20171;-66
2022/05/20 03:52:37;;;;;;;12.80;5.40;;;;;;;;;;4920429;29;20055;-67
2022/05/20 03:55:08;;;;;;;10.98;4.40;;;;;;;;;;4952312;29;20066;-67
2022/05/20 03:57:39;;;;;;;12.43;4.95;;;;;;;;;;4943690;28;20054;-67
2022/05/20 04:00:10;;;;;;;10.15;4.28;;;;;;;;;;5015387;28;20057;-67
2022/05/20 04:02:41;;;;;;;12.25;4.75;;;;;;;;;;5030407;28;20068;-67
2022/05/20 04:05:13;;;;;;;9.48;4.15;;;;;;;;;;5042129;28;20552;-67
2022/05/20 04:07:44;;;;;;;10.77;4.00;;;;;;;;;;5050249;28;20488;-67
2022/05/20 04:10:15;;;;;;;12.02;4.03;;;;;;;;;;5016964;28;20060;-67
2022/05/20 04:12:45;;;;;;;9.00;3.78;;;;;;;;;;5017801;28;20514;-67
2022/05/20 04:15:17;;;;;;;9.90;4.68;;;;;;;;;;5020294;28;20067;-67
2022/05/20 04:17:48;;;;;;;13.00;3.97;;;;;;;;;;5050059;28;20053;-67
2022/05/20 04:20:18;;;;;;;8.90;4.28;;;;;;;;;;5049804;28;20057;-67
2022/05/20 04:22:49;;;;;;;9.45;4.07;;;;;;;;;;5049869;28;20463;-67
2022/05/20 04:25:20;;;;;;;8.73;3.88;;;;;;;;;;5049781;28;20405;-67
2022/05/20 04:27:51;;;;;;;9.98;4.05;;;;;;;;;;5049998;28;20063;-67
2022/05/20 04:30:22;;;;;;;9.90;4.10;;;;;;;;;;5000473;28;20523;-67
2022/05/20 04:32:52;;;;;;;8.95;4.32;;;;;;;;;;5049886;28;20045;-67
2022/05/20 04:35:24;;;;;;;9.18;3.88;;;;;;;;;;5000315;28;20125;-67
2022/05/20 04:37:55;;;;;;;10.43;4.32;;;;;;;;;;5049704;28;20056;-67
2022/05/20 04:40:26;;;;;;;9.13;3.60;;;;;;;;;;5048975;28;20053;-67
2022/05/20 04:48:35;;;;;;;8.02;3.10;;;;;;;;;;5049458;28;20517;-67
2022/05/20 04:51:06;;;;;;;8.38;3.15;;;;;;;;;;5049578;28;20053;-67
2022/05/20 04:56:26;;;;;;;8.90;3.92;;;;;;;;;;5070636;28;20067;-67
2022/05/20 04:58:57;;;;;;;10.30;3.30;;;;;;;;;;5070711;28;20485;-68
2022/05/20 05:01:27;;;;;;;9.55;3.70;;;;;;;;;;5053008;28;20777;-67
2022/05/20 05:03:58;;;;;;;7.93;3.75;;;;;;;;;;5049262;28;20065;-67
2022/05/20 05:06:29;;;;;;;8.88;3.33;;;;;;;;;;5049610;28;20053;-67
2022/05/20 05:09:00;;;;;;;8.63;3.53;;;;;;;;;;5069258;28;20053;-67
2022/05/20 05:11:31;;;;;;;8.02;3.60;;;;;;;;;;5069319;28;20056;-67
2022/05/20 05:14:02;;;;;;;10.40;3.80;;;;;;;;;;5032748;28;20098;-67
2022/05/20 05:16:32;;;;;;;10.90;3.63;;;;;;;;;;5017019;28;20057;-67
2022/05/20 05:19:04;;;;;;;6.82;2.97;;;;;;;;;;5048834;28;20179;-67
2022/05/20 05:21:35;;;;;;;8.05;3.40;;;;;;;;;;5049275;28;20444;-67
2022/05/20 05:24:07;;;;;;;10.57;3.90;;;;;;;;;;5049038;28;20582;-67
2022/05/20 05:26:40;;;;;;;8.85;3.33;;;;;;;;;;5049303;28;20057;-67
2022/05/20 05:29:11;;;;;;;;;;;;;;;;;;5049469;28;20061;-67
2022/05/20 05:31:41;;;;;;;7.38;2.78;;;;;;;;;;5032414;28;19920;-67
2022/05/20 05:34:12;;;;;;;9.95;3.60;;;;;;;;;;5049110;28;20061;-67
2022/05/20 05:36:43;;;;;;;8.25;3.47;;;;;;;;;;5049010;28;20432;-67
2022/05/20 05:39:14;;;;;;;10.93;3.78;;;;;;;;;;5015751;28;20104;-67
2022/05/20 05:41:45;;;;;;;10.57;3.22;;;;;;;;;;4988918;28;20053;-67
2022/05/20 05:44:15;;;;;;;8.48;3.55;;;;;;;;;;5048484;28;20512;-67
2022/05/20 05:46:46;;;;;;;11.27;3.97;;;;;;;;;;4977153;28;20054;-67
2022/05/20 05:49:17;;;;;;;8.07;3.30;;;;;;;;;;5028785;28;20060;-67
2022/05/20 05:51:48;;;;;;;7.60;3.50;;;;;;;;;;4992780;28;20050;-67
2022/05/20 05:54:19;;;;;;;9.77;3.60;;;;;;;;;;4993300;28;20104;-67
2022/05/20 05:56:50;;;;;;;8.68;3.60;;;;;;;;;;4945261;28;20421;-67
2022/05/20 05:59:21;;;;;;;9.27;3.90;;;;;;;;;;4993360;28;20046;-67
2022/05/20 06:01:58;;;;;;;8.07;3.17;;;;;;;;;;4993487;28;20065;-67
2022/05/20 06:04:29;;;;;;;10.00;3.97;;;;;;;;;;4945102;28;20409;-67
2022/05/20 06:07:06;;;;;;;10.18;3.47;;;;;;;;;;4975967;28;20054;-67
2022/05/20 06:09:37;;;;;;;8.48;3.55;;;;;;;;;;4992810;28;20051;-67
2022/05/20 06:12:12;;;;;;;8.77;3.55;;;;;;;;;;4993134;28;20485;-67
2022/05/20 06:14:46;;;;;;;10.85;3.83;;;;;;;;;;4973158;28;20057;-67
2022/05/20 06:17:19;;;;;;;7.28;3.53;;;;;;;;;;4973548;28;20554;-67
2022/05/20 06:19:50;;;;;;;9.57;4.10;;;;;;;;;;4973269;28;20074;-67
2022/05/20 06:22:21;;;;;;;10.77;3.78;;;;;;;;;;4959702;28;20056;-67
2022/05/20 06:24:52;;;;;;;9.57;3.70;;;;;;;;;;4969589;28;20531;-68
2022/05/20 06:27:23;;;;;;;7.90;3.35;;;;;;;;;;4967455;28;20050;-67
2022/05/20 06:29:54;;;;;;;8.02;3.88;;;;;;;;;;4925658;28;20054;-67
2022/05/20 06:32:25;;;;;;;7.57;3.15;;;;;;;;;;4968808;28;20472;-67
2022/05/20 06:40:48;;;;;;;8.52;3.50;;;;;;;;;;4953830;29;20055;-67
2022/05/20 06:43:20;;;;;;;10.07;4.25;;;;;;;;;;4953438;29;20051;-67
2022/05/20 06:45:55;;;;;;;12.45;4.22;;;;;;;;;;4953775;29;20406;-67
2022/05/20 06:48:54;;;;;;;10.82;3.45;;;;;;;;;;4953712;29;20051;-67
2022/05/20 06:51:34;;;;;;;7.40;2.78;;;;;;;;;;4906163;29;20407;-67
2022/05/20 06:54:08;;;;;;;10.15;3.78;;;;;;;;;;4953736;29;20066;-67
2022/05/20 06:56:39;;;;;;;8.73;3.58;;;;;;;;;;4953582;29;20063;-67
2022/05/20 06:59:11;;;;;;;8.68;3.75;;;;;;;;;;4975389;28;20494;-67
2022/05/20 07:01:42;;;;;;;9.18;3.97;;;;;;;;;;5014537;28;20698;-67
2022/05/20 07:04:32;;;;;;;8.77;3.65;;;;;;;;;;5031471;28;20064;-67
2022/05/20 07:07:04;;;;;;;10.48;3.72;;;;;;;;;;4998628;28;20057;-67
2022/05/20 07:09:35;;;;;;;10.43;3.67;;;;;;;;;;5007874;28;20060;-67
2022/05/20 07:12:06;;;;;;;6.78;3.22;;;;;;;;;;5053658;28;20112;-67
2022/05/20 07:14:37;;;;;;;8.63;3.22;;;;;;;;;;5053564;28;20404;-67
2022/05/20 07:17:08;;;;;;;10.60;4.03;;;;;;;;;;5052337;28;20041;-67
2022/05/20 07:19:39;;;;;;;7.53;3.40;;;;;;;;;;5053317;28;20041;-67
2022/05/20 07:22:11;;;;;;;7.47;3.10;;;;;;;;;;5052079;28;20392;-67
2022/05/20 07:24:43;;;;;;;9.45;3.30;;;;;;;;;;5065642;28;20056;-67
2022/05/20 07:27:14;;;;;;;13.70;3.85;;;;;;;;;;5070579;28;20060;-67
2022/05/20 07:29:45;;;;;;;9.10;3.63;;;;;;;;;;5037686;28;20048;-67
2022/05/20 07:32:16;;;;;;;9.02;4.07;;;;;;;;;;5037760;28;20550;-67
2022/05/20 07:34:47;;;;;;;7.90;3.30;;;;;;;;;;5071244;28;20428;-67
2022/05/20 07:37:17;;;;;;;9.45;4.05;;;;;;;;;;5070953;28;20059;-67
2022/05/20 07:39:48;;;;;;;7.90;3.30;;;;;;;;;;5070532;28;20045;-67
2022/05/20 07:42:18;;;;;;;12.88;3.30;;;;;;;;;;5030456;28;20053;-67
2022/05/20 07:44:50;;;;;;;6.32;3.03;;;;;;;;;;5030736;28;20413;-67
2022/05/20 07:47:22;;;;;;;8.45;3.30;;;;;;;;;;5030675;28;20069;-67
2022/05/20 07:49:53;;;;;;;8.65;3.28;;;;;;;;;;5050404;28;20049;-66
2022/05/20 07:55:15;;;;;;;8.68;3.33;;;;;;;;;;5036603;28;20057;-67
2022/05/20 07:57:52;;;;;;;8.10;3.42;;;;;;;;;;4994022;28;20069;-67
2022/05/20 08:00:24;;;;;;;8.23;3.60;;;;;;;;;;4977792;28;20196;-67
2022/05/20 08:03:00;;;;;;;9.20;4.53;;;;;;;;;;5010592;28;20058;-67
2022/05/20 08:05:33;;;;;;;8.18;3.47;;;;;;;;;;4943198;28;20502;-67
2022/05/20 08:08:08;;;;;;;7.53;3.28;;;;;;;;;;4988586;28;20050;-67
2022/05/20 08:10:39;;;;;;;8.52;3.65;;;;;;;;;;4990738;28;20058;-67
2022/05/20 08:13:10;;;;;;;9.88;3.55;;;;;;;;;;4990782;28;20062;-67
2022/05/20 08:15:41;;;;;;;8.43;3.13;;;;;;;;;;4990812;28;20058;-67
2022/05/20 08:18:12;;;;;;;8.55;2.97;;;;;;;;;;4970817;28;20047;-67
2022/05/20 08:20:42;;;;;;;8.52;3.33;;;;;;;;;;4986727;28;20066;-67
2022/05/20 08:23:14;;;;;;;10.23;2.92;;;;;;;;;;4990582;28;20108;-67
2022/05/20 08:25:50;;;;;;;8.63;3.30;;;;;;;;;;4974365;28;20093;-67
2022/05/20 08:28:21;;;;;;;7.82;3.15;;;;;;;;;;5007065;28;20437;-67
2022/05/20 08:30:52;;;;;;;7.75;3.40;;;;;;;;;;5009967;28;20065;-67
2022/05/20 08:33:22;;;;;;;6.63;2.63;;;;;;;;;;5010242;28;20387;-67
2022/05/20 08:35:53;;;;;;;7.97;2.70;;;;;;;;;;5009894;28;20058;-67
2022/05/20 08:38:25;;;;;;;7.72;2.90;;;;;;;;;;4990144;28;20073;-68
2022/05/20 08:40:59;;;;;;;7.03;2.88;;;;;;;;;;4990405;28;20234;-67
2022/05/20 08:43:32;;;;;;;8.18;3.25;;;;;;;;;;4957781;28;20094;-67
2022/05/20 08:46:08;;;;;;;7.20;2.65;;;;;;;;;;4990287;28;20066;-67
2022/05/20 08:48:43;;;;;;;7.80;2.60;;;;;;;;;;4990364;28;20066;-67
2022/05/20 08:51:14;;;;;;;7.05;2.40;;;;;;;;;;4990186;28;20069;-67
2022/05/20 08:53:51;;;;;;;6.82;2.53;;;;;;;;;;4990380;28;20076;-68
2022/05/20 08:56:24;;;;;;;8.40;3.15;;;;;;;;;;5018677;28;20056;-68
2022/05/20 08:58:59;;;;;;;6.97;2.85;;;;;;;;;;4980846;28;20061;-68
2022/05/20 09:01:42;;;;;;;9.35;2.95;;;;;;;;;;4980643;28;20065;-67
2022/05/20 09:04:17;;;;;;;7.75;2.33;;;;;;;;;;5009472;28;20056;-67
2022/05/20 09:07:01;;;;;;;6.03;2.60;;;;;;;;;;5010046;28;20065;-67
2022/05/20 09:09:56;;;;;;;8.00;3.00;;;;;;;;;;5009664;28;20549;-67
2022/05/20 09:12:32;;;;;;;7.20;2.58;;;;;;;;;;4970718;28;20065;-67
2022/05/20 09:18:07;;;;;;;7.20;2.58;;;;;;;;;;4990134;28;20073;-67
2022/05/20 09:20:53;;;;;;;7.20;2.65;;;;;;;;;;4957882;28;20050;-67
2022/05/20 09:23:26;;;;;;;7.00;2.67;;;;;;;;;;4976697;28;20065;-67
2022/05/20 09:26:03;;;;;;;5.32;2.20;;;;;;;;;;5011648;28;20048;-68
2022/05/20 09:28:38;;;;;;;8.23;2.95;;;;;;;;;;5013703;28;20062;-68
2022/05/20 09:31:25;;;;;;;7.28;3.03;;;;;;;;;;4954880;28;20048;-67
2022/05/20 09:34:14;;;;;;;7.13;2.55;;;;;;;;;;4955020;28;20051;-67
2022/05/20 09:37:03;;;;;;;10.40;3.38;;;;;;;;;;4954928;28;20055;-67
2022/05/20 09:39:43;;;;;;;8.35;3.22;;;;;;;;;;4954949;28;20055;-67
2022/05/20 09:42:26;;;;;;;9.13;3.10;;;;;;;;;;4979989;28;20058;-67
2022/05/20 09:45:12;;;;;;;13.93;3.42;;;;;;;;;;4935601;29;20067;-67
2022/05/20 09:47:54;;;;;;;16.83;3.15;;;;;;;;;;4904193;29;20048;-67
2022/05/20 09:50:38;;;;;;;11.60;3.30;;;;;;;;;;4987346;28;20435;-67
2022/05/20 09:53:15;;;;;;;12.52;3.63;;;;;;;;;;4961250;28;20070;-67
2022/05/20 09:55:46;;;;;;;17.23;4.47;;;;;;;;;;4977657;28;20054;-67
2022/05/20 09:58:27;;;;;;;15.77;4.57;;;;;;;;;;4993365;28;20057;-67
2022/05/20 10:01:05;;;;;;;13.20;4.10;;;;;;;;;;4993240;28;20058;-67
2022/05/20 10:03:40;;;;;;;14.70;4.68;;;;;;;;;;4992996;28;20046;-67
2022/05/20 10:06:29;;;;;;;13.35;3.78;;;;;;;;;;4993298;28;20062;-67
2022/05/20 10:09:26;;;;;;;12.07;3.60;;;;;;;;;;4964080;28;20371;-66
2022/05/20 10:12:03;;;;;;;16.60;3.50;;;;;;;;;;5012815;28;20054;-66
2022/05/20 10:15:15;;;;;;;17.42;4.72;;;;;;;;;;5012699;28;20282;-66
2022/05/20 10:18:00;;;;;;;13.32;3.15;;;;;;;;;;4957972;28;20069;-66
2022/05/20 10:20:59;;;;;;;18.25;4.68;;;;;;;;;;4957733;28;20057;-67
2022/05/20 10:23:38;;;;;;;13.80;4.28;;;;;;;;;;4974739;28;20574;-66
2022/05/20 10:26:30;;;;;;;;;;;;;;;;;;4993386;28;20396;-66
2022/05/20 10:35:08;;;;;;;17.05;3.97;;;;;;;;;;4972926;28;20054;-67
2022/05/20 10:37:54;;;;;;;13.75;4.32;;;;;;;;;;4940160;28;20400;-67
2022/05/20 10:40:49;;;;;;;32.20;5.15;;;;;;;;;;4972727;28;20059;-66
2022/05/20 10:50:25;;;;;;;19.98;4.70;;;;;;;;;;4972964;28;20182;-69
2022/05/20 10:53:16;;;;;;;24.10;4.78;;;;;;;;;;4973108;28;20059;-68
2022/05/20 10:56:43;;;;;;;26.50;6.32;;;;;;;;;;5000298;28;20541;-69
2022/05/20 10:59:29;;;;;;;17.65;5.22;;;;;;;;;;4953524;29;20062;-68
2022/05/20 11:02:17;;;;;;;19.33;4.95;;;;;;;;;;4953417;29;20066;-68
2022/05/20 11:05:03;;;;;;;23.17;6.05;;;;;;;;;;4953476;28;20526;-69
2022/05/20 11:08:04;;;;;;;20.52;5.80;;;;;;;;;;4921659;29;20503;-68
2022/05/20 11:10:58;;;;;;;26.60;6.93;;;;;;;;;;4919404;29;20418;-68
2022/05/20 11:14:22;;;;;;;26.63;6.80;;;;;;;;;;4930872;29;20511;-68
2022/05/20 11:17:18;;;;;;;25.77;9.10;;;;;;;;;;4914668;29;20064;-68
2022/05/20 11:20:12;;;;;;;23.00;8.23;;;;;;;;;;4914747;29;20056;-69
2022/05/20 11:23:05;;;;;;;26.77;9.52;;;;;;;;;;4914235;29;20052;-68
2022/05/20 11:25:53;;;;;;;19.75;6.15;;;;;;;;;;4932292;29;20051;-69
2022/05/20 11:28:42;;;;;;;22.23;7.75;;;;;;;;;;4933818;29;20055;-69
2022/05/20 11:31:16;;;;;;;25.40;6.95;;;;;;;;;;4933712;29;20086;-68
2022/05/20 11:34:14;;;;;;;26.58;8.40;;;;;;;;;;4914702;29;20056;-66
2022/05/20 11:36:57;;;;;;;23.70;6.80;;;;;;;;;;4879932;29;20053;-68
2022/05/20 11:39:47;;;;;;;23.60;7.22;;;;;;;;;;4895768;29;20056;-68
2022/05/20 11:43:01;;;;;;;21.38;6.50;;;;;;;;;;4895421;29;20052;-68
2022/05/20 11:46:01;;;;;;;17.60;5.88;;;;;;;;;;4839507;29;20522;-68
2022/05/20 11:48:53;;;;;;;26.75;9.23;;;;;;;;;;4845570;29;20569;-68
2022/05/20 11:51:26;;;;;;;;;;;;;;;;;;4825826;29;20054;-68
2022/05/20 11:54:19;;;;;;;18.80;6.93;;;;;;;;;;4806502;29;19931;-70
2022/05/20 11:57:08;;;;;;;16.33;5.85;;;;;;;;;;4821485;29;20073;-66
2022/05/20 11:59:50;;;;;;;19.58;6.28;;;;;;;;;;4824895;29;20254;-66
2022/05/20 12:02:22;;;;;;;16.98;6.35;;;;;;;;;;4857776;29;20046;-68
2022/05/20 12:04:54;;;;;;;21.02;6.90;;;;;;;;;;4857706;29;20057;-66
2022/05/20 12:07:26;;;;;;;23.55;6.47;;;;;;;;;;4875902;29;20053;-66
2022/05/20 12:09:58;;;;;;;21.33;6.05;;;;;;;;;;4861545;29;20450;-66
2022/05/20 12:12:51;;;;;;;20.17;6.20;;;;;;;;;;4928183;29;20064;-66
2022/05/20 12:15:22;;;;;;;19.95;6.00;;;;;;;;;;4883986;29;20052;-68
2022/05/20 12:17:53;;;;;;;20.33;6.10;;;;;;;;;;4894939;29;20071;-66
2022/05/20 12:26:04;;;;;;;25.10;8.55;;;;;;;;;;4959533;28;20482;-67
2022/05/20 12:28:39;;;;;;;35.65;8.52;;;;;;;;;;4971101;28;20062;-66
2022/05/20 12:31:22;;;;;;;33.13;9.45;;;;;;;;;;4971229;28;20058;-66
2022/05/20 12:34:10;;;;;;;24.45;9.20;;;;;;;;;;4955324;28;20066;-66
2022/05/20 12:36:43;;;;;;;16.73;6.03;;;;;;;;;;4970937;28;20067;-66
2022/05/20 12:39:16;;;;;;;;;;;;;;;;;;4974884;28;20442;-66
2022/05/20 12:41:50;;;;;;;15.57;5.88;;;;;;;;;;4993934;28;19921;-66
2022/05/20 12:44:36;;;;;;;24.90;9.60;;;;;;;;;;4978009;28;20045;-66
2022/05/20 12:47:12;;;;;;;25.70;9.70;;;;;;;;;;5009912;28;20422;-66
2022/05/20 12:49:59;;;;;;;25.42;10.38;;;;;;;;;;5009949;28;20474;-66
2022/05/20 12:52:51;;;;;;;19.42;7.25;;;;;;;;;;4961762;28;20058;-66
2022/05/20 12:55:33;;;;;;;17.42;6.75;;;;;;;;;;5009788;28;20041;-66
2022/05/20 12:58:15;;;;;;;16.67;5.95;;;;;;;;;;5009958;28;20062;-66
2022/05/20 13:00:51;;;;;;;16.55;5.45;;;;;;;;;;5009107;28;20058;-66
2022/05/20 13:03:45;;;;;;;22.75;6.85;;;;;;;;;;5005745;28;20049;-66
2022/05/20 13:06:17;;;;;;;21.30;8.30;;;;;;;;;;4996645;28;20061;-66
2022/05/20 13:08:52;;;;;;;17.60;5.53;;;;;;;;;;5029658;28;20064;-67
2022/05/20 13:11:24;;;;;;;18.17;7.00;;;;;;;;;;5029546;28;20049;-66
2022/05/20 13:14:00;;;;;;;20.38;6.82;;;;;;;;;;4989773;28;20062;-66
2022/05/20 13:16:31;;;;;;;20.70;8.85;;;;;;;;;;4958358;28;20533;-66
2022/05/20 13:19:09;;;;;;;19.38;6.72;;;;;;;;;;4970255;28;20062;-67
2022/05/20 13:21:47;;;;;;;18.10;6.50;;;;;;;;;;4940482;28;20054;-67
2022/05/20 13:24:24;;;;;;;9.88;4.63;;;;;;;;;;4970358;28;20061;-67
2022/05/20 13:27:14;;;;;;;10.00;4.13;;;;;;;;;;4951072;29;20080;-67
2022/05/20 13:29:47;;;;;;;11.55;4.40;;;;;;;;;;4970552;28;20063;-67
2022/05/20 13:32:20;;;;;;;13.88;5.32;;;;;;;;;;4970460;28;20066;-67
2022/05/20 13:34:53;;;;;;;13.70;5.38;;;;;;;;;;4986464;28;20078;-67
2022/05/20 13:37:49;;;;;;;15.98;5.35;;;;;;;;;;4970045;28;20046;-67
2022/05/20 13:40:34;;;;;;;14.52;6.40;;;;;;;;;;4961582;28;20054;-67
2022/05/20 13:43:05;;;;;;;11.10;5.00;;;;;;;;;;4976702;28;20056;-67
2022/05/20 13:51:42;;;;;;;7.82;2.88;;;;;;;;;;5002768;28;20060;-67
2022/05/20 13:54:34;;;;;;;13.05;5.10;;;;;;;;;;5008897;28;20053;-67
2022/05/20 13:57:11;;;;;;;7.55;3.20;;;;;;;;;;4944153;29;20047;-66
2022/05/20 13:59:42;;;;;;;13.30;5.47;;;;;;;;;;4934902;29;20108;-67
2022/05/20 14:02:17;;;;;;;14.80;5.05;;;;;;;;;;4950784;28;20059;-67
2022/05/20 14:04:51;;;;;;;9.15;4.10;;;;;;;;;;4946339;28;20109;-66
2022/05/20 14:07:27;;;;;;;9.43;3.70;;;;;;;;;;4970219;28;20058;-66
2022/05/20 14:10:23;;;;;;;18.80;6.28;;;;;;;;;;4900078;29;20408;-67
2022/05/20 14:13:21;;;;;;;20.08;7.18;;;;;;;;;;4935068;29;20648;-66
2022/05/20 14:16:00;;;;;;;25.23;8.55;;;;;;;;;;4934312;29;20059;-66
2022/05/20 14:18:41;;;;;;;27.63;10.55;;;;;;;;;;4919883;29;20082;-66
2022/05/20 14:21:20;;;;;;;18.23;6.40;;;;;;;;;;4902787;29;20060;-66
2022/05/20 14:24:06;;;;;;;34.60;13.07;;;;;;;;;;4934897;29;20067;-66
2022/05/20 14:26:44;;;;;;;19.38;6.53;;;;;;;;;;4935199;29;20051;-67
2022/05/20 14:29:24;;;;;;;18.60;6.25;;;;;;;;;;4918785;29;20435;-67
2022/05/20 14:32:02;;;;;;;22.10;8.57;;;;;;;;;;4912123;29;20078;-66
2022/05/20 14:34:50;;;;;;;25.50;10.10;;;;;;;;;;4986575;28;20073;-66
2022/05/20 14:37:33;;;;;;;23.58;8.65;;;;;;;;;;4998952;28;20524;-66
2022/05/20 14:40:09;;;;;;;28.80;10.60;;;;;;;;;;5031987;28;20057;-66
2022/05/20 14:42:41;;;;;;;24.60;9.40;;;;;;;;;;4982969;28;20449;-66
2022/05/20 14:45:20;;;;;;;23.42;10.07;;;;;;;;;;4998908;28;20064;-66
2022/05/20 14:47:59;;;;;;;22.42;8.82;;;;;;;;;;5016015;28;20416;-66
2022/05/20 14:50:30;;;;;;;24.20;9.25;;;;;;;;;;5074057;28;20051;-66
2022/05/20 14:53:06;;;;;;;23.48;9.10;;;;;;;;;;5073886;28;20041;-66
2022/05/20 14:55:44;;;;;;;15.60;6.25;;;;;;;;;;5074178;28;20052;-67
2022/05/20 14:58:23;;;;;;;16.60;6.82;;;;;;;;;;5073677;28;20047;-66
2022/05/20 15:00:55;;;;;;;12.73;6.32;;;;;;;;;;5074015;28;20036;-66
2022/05/20 15:03:32;;;;;;;13.93;5.97;;;;;;;;;;5073653;28;20048;-66
2022/05/20 15:06:04;;;;;;;8.95;3.92;;;;;;;;;;5038682;28;20052;-66
2022/05/20 15:08:35;;;;;;;10.43;4.43;;;;;;;;;;5051041;28;20045;-66
2022/05/20 15:11:18;;;;;;;7.40;3.92;;;;;;;;;;5035194;28;20053;-65
2022/05/20 15:13:49;;;;;;;5.05;1.85;;;;;;;;;;5035197;28;20099;-65
2022/05/20 15:16:20;;;;;;;8.00;3.67;;;;;;;;;;5051183;28;20527;-66
2022/05/20 15:18:51;;;;;;;8.10;3.25;;;;;;;;;;5051391;28;20540;-66
2022/05/20 15:21:30;;;;;;;7.50;4.28;;;;;;;;;;5051001;28;20067;-66
2022/05/20 15:24:25;;;;;;;8.35;3.60;;;;;;;;;;5034606;28;20061;-66
2022/05/20 15:26:56;;;;;;;14.20;5.43;;;;;;;;;;5050991;28;20057;-66
2022/05/20 15:29:28;;;;;;;5.47;2.83;;;;;;;;;;5051178;28;20063;-66
2022/05/20 15:34:53;;;;;;;8.50;4.07;;;;;;;;;;5034166;28;20053;-66
2022/05/20 15:37:29;;;;;;;7.38;3.35;;;;;;;;;;5050677;28;20060;-66
2022/05/20 15:39:59;;;;;;;6.32;2.78;;;;;;;;;;5050563;28;20049;-67
2022/05/20 15:42:30;;;;;;;11.00;3.30;;;;;;;;;;5026997;28;20057;-66
2022/05/20 15:45:02;;;;;;;7.65;3.15;;;;;;;;;;5010554;28;20058;-66
2022/05/20 15:47:33;;;;;;;6.07;3.60;;;;;;;;;;4975302;28;20077;-65
2022/05/20 15:50:06;;;;;;;8.05;3.55;;;;;;;;;;4991420;28;20441;-66
2022/05/20 15:52:43;;;;;;;3.58;2.13;;;;;;;;;;4991172;28;20050;-66
2022/05/20 15:55:25;;;;;;;8.32;4.07;;;;;;;;;;4991075;28;20050;-66
2022/05/20 15:58:00;;;;;;;5.75;3.17;;;;;;;;;;4991293;28;20046;-65
2022/05/20 16:00:31;;;;;;;6.60;3.35;;;;;;;;;;4991137;28;20066;-66
2022/05/20 16:03:01;;;;;;;9.80;4.20;;;;;;;;;;4991189;28;20426;-66
2022/05/20 16:05:33;;;;;;;5.90;3.38;;;;;;;;;;4975146;28;20159;-66
2022/05/20 16:08:12;;;;;;;7.75;3.53;;;;;;;;;;4990835;28;20540;-66
2022/05/20 16:10:46;;;;;;;5.65;2.85;;;;;;;;;;4991025;28;20403;-66
2022/05/20 16:13:18;;;;;;;10.25;3.92;;;;;;;;;;4974196;28;20073;-66
2022/05/20 16:15:49;;;;;;;8.88;3.28;;;;;;;;;;5023411;28;20058;-66
2022/05/20 16:18:20;;;;;;;6.93;3.05;;;;;;;;;;5030398;28;20042;-66
2022/05/20 16:20:52;;;;;;;7.85;3.90;;;;;;;;;;5063833;28;20396;-66
2022/05/20 16:23:25;;;;;;;7.20;3.55;;;;;;;;;;5056360;28;20056;-66
2022/05/20 16:25:58;;;;;;;6.13;3.20;;;;;;;;;;5069839;28;20060;-66
2022/05/20 16:28:29;;;;;;;7.18;3.58;;;;;;;;;;5069880;28;20056;-66